Time;durP1;ratioP1;P1;durP2;ratioP2;P2;SDS_P1;SDS_P2;PMS_P1;PMS_P2;Temp;Humidity;BMP_temperature;BMP_pressure;BME280_temperature;BME280_humidity;BME280_pressure;Samples;Min_cycle;Max_cycle;Signal;HPM_P1;HPM_P2
2023/10/30 00:04:28;;;;;;;0.38;0.20;;;;;;;12.97;90.26;151941.63;10536727;28;20044;-79
2023/10/30 00:09:31;;;;;;;0.10;0.10;;;;;;;12.90;92.04;151923.50;10537391;28;20512;-80
2023/10/30 00:14:33;;;;;;;0.15;0.15;;;;;;;13.32;88.72;152029.59;10538051;28;20036;-79
2023/10/30 00:19:37;;;;;;;0.77;0.13;;;;;;;13.25;89.17;152011.50;10536829;28;20052;-79
2023/10/30 00:24:40;;;;;;;0.20;0.20;;;;;;;13.52;87.29;152080.09;10535701;28;20107;-79
2023/10/30 00:29:42;;;;;;;0.03;0.03;;;;;;;13.47;89.06;152067.16;10536085;28;20066;-79
2023/10/30 00:34:45;;;;;;;0.10;0.10;;;;;;;13.24;90.95;152008.94;10521121;28;20054;-79
2023/10/30 00:39:48;;;;;;;0.10;0.10;;;;;;;13.61;86.31;152104.66;10528094;28;20052;-79
2023/10/30 00:44:53;;;;;;;0.10;0.00;;;;;;;13.70;86.92;152125.38;10522411;28;20044;-79
2023/10/30 00:49:56;;;;;;;0.10;0.10;;;;;;;13.70;85.91;152125.38;10535543;28;20048;-79
2023/10/30 00:54:58;;;;;;;0.05;0.05;;;;;;;13.60;86.45;152102.09;10538481;28;20044;-79
2023/10/30 01:00:04;;;;;;;0.00;0.00;;;;;;;13.32;87.55;152030.88;10531818;28;20131;-82
2023/10/30 01:05:08;;;;;;;0.38;0.10;;;;;;;13.16;88.83;151988.19;10548287;28;20060;-82
2023/10/30 01:10:10;;;;;;;0.15;0.15;;;;;;;13.25;88.21;152011.50;10529085;28;20089;-82
2023/10/30 01:15:13;;;;;;;0.70;0.50;;;;;;;12.90;92.06;151922.22;10532681;28;20043;-82
2023/10/30 01:20:15;;;;;;;1.02;0.60;;;;;;;12.79;93.74;151895.00;10535270;28;20103;-83
2023/10/30 01:25:16;;;;;;;0.85;0.73;;;;;;;13.05;92.74;151962.28;10535181;28;20115;-82
2023/10/30 01:30:18;;;;;;;0.65;0.55;;;;;;;12.69;95.46;151870.44;10534433;28;20052;-81
2023/10/30 01:35:20;;;;;;;0.75;0.70;;;;;;;12.67;97.12;151865.31;10533810;28;20040;-82
2023/10/30 01:40:22;;;;;;;0.70;0.60;;;;;;;12.75;97.79;151884.66;10516913;28;20044;-81
2023/10/30 01:45:25;;;;;;;0.95;0.60;;;;;;;12.55;99.93;151834.25;10552083;28;20089;-82
2023/10/30 01:50:26;;;;;;;0.82;0.50;;;;;;;12.83;96.30;151905.38;10551649;28;20052;-83
2023/10/30 01:55:29;;;;;;;0.55;0.40;;;;;;;12.57;99.95;151840.75;10557610;28;20499;-83
2023/10/30 02:00:30;;;;;;;0.70;0.50;;;;;;;12.53;100.00;151829.09;10537996;28;20071;-82
2023/10/30 02:05:32;;;;;;;0.50;0.45;;;;;;;12.49;100.00;151820.03;10534902;28;20040;-83
2023/10/30 02:10:34;;;;;;;0.57;0.50;;;;;;;12.84;98.73;151909.28;10534406;28;20050;-82
2023/10/30 02:15:36;;;;;;;1.38;0.60;;;;;;;12.54;100.00;151831.69;10533732;28;20127;-83
2023/10/30 02:20:38;;;;;;;0.88;0.50;;;;;;;12.61;100.00;151851.03;10532130;28;20058;-83
2023/10/30 02:25:40;;;;;;;0.50;0.40;;;;;;;12.44;100.00;151807.13;10531550;28;20048;-82
2023/10/30 02:30:42;;;;;;;5.22;2.55;;;;;;;12.67;100.00;151864.03;10534098;28;20132;-81
2023/10/30 02:35:44;;;;;;;0.90;0.60;;;;;;;12.40;100.00;151796.78;10548030;28;20044;-83
2023/10/30 02:40:46;;;;;;;0.68;0.60;;;;;;;12.23;100.00;151752.81;10530343;28;20044;-83
2023/10/30 02:45:49;;;;;;;0.77;0.63;;;;;;;12.20;100.00;151745.03;10548626;28;20054;-81
2023/10/30 02:50:51;;;;;;;1.35;1.00;;;;;;;12.29;100.00;151769.59;10531088;28;20051;-83
2023/10/30 02:55:52;;;;;;;0.52;0.50;;;;;;;12.15;100.00;151733.41;10549326;28;20384;-82
2023/10/30 03:00:54;;;;;;;0.90;0.60;;;;;;;11.95;100.00;151682.97;10529498;28;20497;-82
2023/10/30 03:05:56;;;;;;;0.60;0.50;;;;;;;11.78;100.00;151640.31;10548026;28;20419;-82
2023/10/30 03:10:58;;;;;;;1.80;0.80;;;;;;;11.95;100.00;151681.69;10547344;28;20044;-82
2023/10/30 03:16:00;;;;;;;1.35;0.80;;;;;;;11.68;100.00;151613.16;10548364;28;20111;-81
2023/10/30 03:21:04;;;;;;;1.80;1.20;;;;;;;11.68;100.00;151613.16;10527473;28;20046;-83
2023/10/30 03:26:05;;;;;;;1.10;0.90;;;;;;;11.77;100.00;151636.41;10529638;28;20113;-82
2023/10/30 03:31:07;;;;;;;1.27;1.00;;;;;;;11.63;100.00;151602.81;10540848;28;20040;-81
2023/10/30 03:36:09;;;;;;;1.90;0.95;;;;;;;11.72;100.00;151624.78;10546539;28;20032;-83
2023/10/30 03:41:13;;;;;;;0.93;0.70;;;;;;;11.75;100.00;151632.53;10563834;28;20073;-79
2023/10/30 03:46:15;;;;;;;2.53;0.30;;;;;;;11.74;100.00;151629.97;10592430;28;20110;-80
2023/10/30 03:51:17;;;;;;;0.43;0.15;;;;;;;11.82;100.00;151649.31;10574882;28;20067;-81
2023/10/30 03:56:19;;;;;;;0.40;0.40;;;;;;;11.84;100.00;151655.84;10574795;28;20054;-80
2023/10/30 04:01:20;;;;;;;0.55;0.20;;;;;;;11.65;100.00;151605.44;10592184;28;20040;-82
2023/10/30 04:06:25;;;;;;;0.47;0.10;;;;;;;11.57;100.00;151587.31;10569270;28;20051;-83
2023/10/30 04:12:06;;;;;;;0.32;0.10;;;;;;;11.54;100.00;151579.56;10533555;28;20054;-81
2023/10/30 04:17:07;;;;;;;1.33;0.30;;;;;;;11.35;100.00;151531.75;10549995;28;20032;-83
2023/10/30 04:22:09;;;;;;;0.80;0.40;;;;;;;11.52;100.00;151574.41;10550351;28;20074;-83
2023/10/30 04:27:11;;;;;;;1.10;0.20;;;;;;;11.25;100.00;151504.66;10514525;28;20040;-83
2023/10/30 04:32:13;;;;;;;1.02;0.32;;;;;;;11.11;100.00;151471.06;10552935;28;20058;-80
2023/10/30 04:37:14;;;;;;;1.67;0.40;;;;;;;11.06;100.00;151456.81;10571082;28;20036;-79
2023/10/30 04:42:16;;;;;;;1.02;0.80;;;;;;;11.01;100.00;151445.19;10551283;28;20059;-84
2023/10/30 04:47:20;;;;;;;0.38;0.38;;;;;;;10.99;100.00;151440.06;10550592;28;20380;-82
2023/10/30 04:52:23;;;;;;;1.88;1.02;;;;;;;10.86;100.00;151406.47;10559064;28;20082;-82
2023/10/30 04:57:25;;;;;;;2.13;1.30;;;;;;;10.66;100.00;151356.09;10557527;28;20048;-83
2023/10/30 05:02:27;;;;;;;2.72;2.42;;;;;;;10.76;100.00;151381.94;10556463;28;20490;-84
2023/10/30 05:07:28;;;;;;;2.53;2.08;;;;;;;10.68;100.00;151360.00;10538600;28;20070;-83
2023/10/30 05:12:30;;;;;;;3.38;2.40;;;;;;;11.05;100.00;151454.25;10536671;28;20384;-83
2023/10/30 05:17:32;;;;;;;3.47;2.28;;;;;;;10.67;100.00;151357.38;10555043;28;20043;-83
2023/10/30 05:22:34;;;;;;;4.45;3.80;;;;;;;10.79;100.00;151388.38;10555264;28;20047;-82
2023/10/30 05:27:35;;;;;;;3.03;2.50;;;;;;;11.25;100.00;151504.66;10554966;28;20035;-83
2023/10/30 05:32:37;;;;;;;3.53;3.13;;;;;;;11.14;100.00;151476.22;10555238;28;20050;-83
2023/10/30 05:37:39;;;;;;;3.97;2.85;;;;;;;10.92;100.00;151420.66;10554978;28;20553;-84
2023/10/30 05:42:40;;;;;;;2.67;2.45;;;;;;;10.73;100.00;151372.91;10519545;28;20496;-83
2023/10/30 05:47:42;;;;;;;3.03;2.72;;;;;;;10.61;100.00;151344.47;10553027;28;20119;-84
2023/10/30 05:52:44;;;;;;;4.07;3.60;;;;;;;10.64;100.00;151350.94;10553029;28;20036;-84
2023/10/30 05:57:46;;;;;;;3.03;2.55;;;;;;;10.50;100.00;151316.09;10535676;28;20048;-83
2023/10/30 06:02:48;;;;;;;4.25;3.05;;;;;;;10.41;100.00;151292.84;10533785;28;20058;-80
2023/10/30 06:07:50;;;;;;;4.63;4.20;;;;;;;10.39;100.00;151287.66;10564982;28;20079;-84
2023/10/30 06:12:51;;;;;;;5.28;4.05;;;;;;;10.53;100.00;151323.81;10536666;28;20048;-81
2023/10/30 06:17:53;;;;;;;4.43;3.88;;;;;;;10.97;100.00;151433.56;10553180;28;20040;-82
2023/10/30 06:22:57;;;;;;;5.18;3.60;;;;;;;10.69;100.00;151362.56;10552890;28;20446;-82
2023/10/30 06:27:59;;;;;;;6.00;5.43;;;;;;;10.75;100.00;151379.31;10551783;28;20480;-84
2023/10/30 06:33:00;;;;;;;4.40;4.00;;;;;;;10.64;100.00;151349.66;10553135;28;20079;-83
2023/10/30 06:38:03;;;;;;;5.38;4.82;;;;;;;10.78;100.00;151385.81;10555501;28;20059;-82
2023/10/30 06:43:05;;;;;;;3.72;3.42;;;;;;;10.82;100.00;151397.44;10533687;28;20495;-82
2023/10/30 06:48:07;;;;;;;3.25;2.95;;;;;;;10.77;100.00;151383.22;10551429;28;20063;-82
2023/10/30 06:53:09;;;;;;;3.70;3.17;;;;;;;10.94;100.00;151427.16;10549938;28;20083;-83
2023/10/30 06:58:11;;;;;;;3.13;2.83;;;;;;;10.88;100.00;151411.63;10543101;28;20048;-85
2023/10/30 07:03:13;;;;;;;3.30;3.00;;;;;;;11.02;100.00;151446.47;10531517;28;20051;-82
2023/10/30 07:08:15;;;;;;;3.92;3.17;;;;;;;11.33;100.00;151526.63;10549362;28;20036;-83
2023/10/30 07:13:17;;;;;;;2.50;2.10;;;;;;;11.45;100.00;151555.00;10540521;28;20127;-84
2023/10/30 07:18:19;;;;;;;2.80;2.42;;;;;;;11.49;100.00;151565.34;10559942;28;20078;-79
2023/10/30 07:23:20;;;;;;;3.22;2.58;;;;;;;11.81;100.00;151646.75;10549785;28;20047;-82
2023/10/30 07:28:22;;;;;;;2.45;2.25;;;;;;;11.79;100.00;151642.88;10558412;28;20421;-81
2023/10/30 07:33:24;;;;;;;2.50;2.30;;;;;;;12.14;100.00;151730.84;10553866;28;20043;-81
2023/10/30 07:38:26;;;;;;;2.75;2.15;;;;;;;12.36;100.00;151786.44;10538103;28;20101;-82
2023/10/30 07:43:27;;;;;;;2.20;1.90;;;;;;;12.27;100.00;151763.16;10538728;28;20078;-82
2023/10/30 07:48:29;;;;;;;2.40;1.80;;;;;;;12.48;100.00;151816.13;10551742;28;20040;-81
2023/10/30 07:53:31;;;;;;;4.03;1.90;;;;;;;12.63;100.00;151854.94;10553214;28;20067;-80
2023/10/30 07:58:33;;;;;;;1.80;1.20;;;;;;;12.62;100.00;151852.38;10530965;28;20042;-80
2023/10/30 08:03:34;;;;;;;2.15;1.45;;;;;;;12.97;100.00;151941.63;10567209;28;20048;-82
2023/10/30 08:08:38;;;;;;;2.55;1.58;;;;;;;12.87;100.00;151915.72;10536175;28;20072;-83
2023/10/30 08:13:39;;;;;;;2.05;1.48;;;;;;;13.12;100.00;151980.41;10549462;28;20457;-84
2023/10/30 08:18:41;;;;;;;2.53;1.55;;;;;;;13.19;99.45;151997.19;10549006;28;20043;-81
2023/10/30 08:23:43;;;;;;;1.65;1.55;;;;;;;13.26;98.02;152014.09;10547405;28;20494;-83
2023/10/30 08:28:45;;;;;;;3.08;2.00;;;;;;;13.33;95.45;152033.50;10529168;28;20052;-82
2023/10/30 08:33:47;;;;;;;2.10;1.88;;;;;;;13.32;95.53;152030.88;10547962;28;20052;-82
2023/10/30 08:38:49;;;;;;;2.60;2.30;;;;;;;13.26;95.91;152015.38;10548101;28;20118;-82
2023/10/30 08:43:53;;;;;;;5.32;2.45;;;;;;;13.38;95.65;152045.16;10529806;28;20074;-82
2023/10/30 08:48:56;;;;;;;2.75;2.55;;;;;;;13.61;94.99;152104.66;10546005;28;20091;-83
2023/10/30 08:53:57;;;;;;;1.95;1.75;;;;;;;13.61;98.75;152103.38;10546075;28;20107;-85
2023/10/30 08:58:59;;;;;;;2.13;1.83;;;;;;;13.75;96.09;152138.31;10547254;28;20036;-83
2023/10/30 09:04:01;;;;;;;3.45;1.95;;;;;;;13.68;98.21;152121.50;10528683;28;20143;-84
2023/10/30 09:09:03;;;;;;;3.00;2.40;;;;;;;13.89;94.62;152174.53;10530270;28;20157;-81
2023/10/30 09:14:05;;;;;;;2.60;2.17;;;;;;;13.62;100.00;152105.94;10528459;28;20392;-83
2023/10/30 09:19:06;;;;;;;2.53;1.73;;;;;;;13.70;99.15;152125.38;10531991;28;20071;-81
2023/10/30 09:24:08;;;;;;;3.28;2.00;;;;;;;14.25;91.67;152265.16;10552498;28;20059;-81
2023/10/30 09:29:10;;;;;;;3.28;2.15;;;;;;;14.54;91.32;152339.03;10555372;28;20028;-79
2023/10/30 09:34:12;;;;;;;2.03;1.83;;;;;;;14.60;89.17;152355.84;10539364;28;20052;-79
2023/10/30 09:39:13;;;;;;;2.40;2.00;;;;;;;14.92;86.81;152436.19;10580204;28;20040;-82
2023/10/30 09:44:16;;;;;;;1.98;1.83;;;;;;;15.01;85.62;152459.50;10558814;28;20387;-83
2023/10/30 09:49:18;;;;;;;2.45;1.90;;;;;;;14.82;88.51;152411.53;10572751;28;20052;-83
2023/10/30 09:54:20;;;;;;;2.13;1.63;;;;;;;14.64;87.56;152366.19;10540495;28;20475;-84
2023/10/30 09:59:22;;;;;;;3.10;2.00;;;;;;;14.75;86.72;152393.44;10554307;28;20036;-84
2023/10/30 10:04:24;;;;;;;5.78;3.83;;;;;;;15.16;85.21;152495.75;10535238;28;20039;-83
2023/10/30 10:09:26;;;;;;;1.75;1.63;;;;;;;15.50;83.89;152583.88;10555376;28;20122;-82
2023/10/30 10:14:31;;;;;;;1.40;1.10;;;;;;;15.89;82.26;152683.72;10580132;28;20044;-80
2023/10/30 10:19:34;;;;;;;1.03;0.90;;;;;;;16.39;76.98;152810.75;10555153;28;20491;-82
2023/10/30 10:24:39;;;;;;;0.80;0.80;;;;;;;16.31;77.67;152790.00;10555992;28;20073;-84
2023/10/30 10:29:40;;;;;;;4.97;0.80;;;;;;;16.37;77.60;152804.25;10540384;28;20062;-84
2023/10/30 10:34:42;;;;;;;0.98;0.77;;;;;;;16.72;74.90;152893.78;10559423;28;20064;-84
2023/10/30 10:39:51;;;;;;;0.77;0.65;;;;;;;16.87;76.38;152932.72;10570260;28;20051;-82
2023/10/30 10:44:56;;;;;;;0.90;0.50;;;;;;;17.63;72.10;153126.03;10584105;28;20040;-84
2023/10/30 10:49:58;;;;;;;0.52;0.47;;;;;;;18.14;66.93;153255.84;10558311;28;20058;-85
2023/10/30 10:55:05;;;;;;;0.80;0.63;;;;;;;18.48;62.43;153340.25;10562042;28;20039;-83
2023/10/30 11:00:11;;;;;;;1.00;0.75;;;;;;;18.63;63.89;153379.19;10569756;28;20127;-84
2023/10/30 11:05:13;;;;;;;0.80;0.60;;;;;;;19.05;63.85;153487.06;10551736;28;20099;-82
2023/10/30 11:10:27;;;;;;;1.00;0.60;;;;;;;19.54;58.20;153610.50;10552645;28;20047;-83
2023/10/30 11:15:36;;;;;;;1.42;0.50;;;;;;;19.19;60.79;153520.84;10550927;28;20143;-83
2023/10/30 11:20:40;;;;;;;0.65;0.30;;;;;;;19.15;63.85;153513.03;10550231;28;20438;-82
2023/10/30 11:25:44;;;;;;;0.30;0.30;;;;;;;19.07;63.84;153492.25;10548173;28;20048;-85
2023/10/30 11:30:49;;;;;;;0.75;0.50;;;;;;;19.34;62.26;153561.09;10533495;28;20052;-82
2023/10/30 11:36:14;;;;;;;0.82;0.50;;;;;;;19.28;61.92;153544.22;10551678;28;20040;-82
2023/10/30 11:41:16;;;;;;;0.68;0.60;;;;;;;19.54;62.28;153611.78;10519338;28;20495;-82
2023/10/30 11:46:18;;;;;;;0.45;0.45;;;;;;;19.38;62.01;153571.50;10529449;28;20040;-83
2023/10/30 11:51:22;;;;;;;0.98;0.80;;;;;;;19.45;61.79;153588.41;10548720;28;20051;-82
2023/10/30 11:56:24;;;;;;;0.43;0.40;;;;;;;19.32;62.14;153554.63;10547084;28;20036;-83
2023/10/30 12:01:26;;;;;;;0.80;0.65;;;;;;;18.99;64.23;153470.16;10547145;28;20075;-85
2023/10/30 12:06:28;;;;;;;1.75;0.63;;;;;;;19.11;60.32;153502.63;10547734;28;20039;-84
2023/10/30 12:11:29;;;;;;;0.47;0.40;;;;;;;19.08;62.57;153493.53;10530419;28;20495;-85
2023/10/30 12:16:34;;;;;;;2.15;0.35;;;;;;;19.05;61.50;153487.06;10548479;28;20044;-85
2023/10/30 12:21:36;;;;;;;0.90;0.50;;;;;;;19.23;58.80;153532.53;10533289;28;20072;-86
2023/10/30 12:26:41;;;;;;;0.40;0.30;;;;;;;19.09;61.11;153496.19;10569947;28;20050;-84
2023/10/30 12:31:43;;;;;;;0.50;0.50;;;;;;;19.17;62.07;153516.97;10551595;28;20119;-83
2023/10/30 12:36:44;;;;;;;2.15;0.82;;;;;;;19.08;64.07;153494.88;10547876;28;20054;-83
2023/10/30 12:41:52;;;;;;;1.02;0.80;;;;;;;19.01;65.44;153476.69;10547420;28;20036;-85
2023/10/30 12:46:54;;;;;;;0.68;0.60;;;;;;;18.80;66.43;153423.41;10546913;28;20115;-84
2023/10/30 12:51:55;;;;;;;0.60;0.60;;;;;;;18.69;65.76;153393.53;10529852;28;20048;-84
2023/10/30 12:56:57;;;;;;;1.02;0.80;;;;;;;18.43;68.29;153328.56;10550865;28;20426;-84
2023/10/30 13:01:59;;;;;;;0.80;0.68;;;;;;;18.37;67.92;153314.31;10558825;28;20152;-81
2023/10/30 13:07:02;;;;;;;0.60;0.50;;;;;;;18.22;68.37;153275.34;10567578;28;20071;-79
2023/10/30 13:12:04;;;;;;;1.10;0.80;;;;;;;18.00;69.63;153219.50;10580586;28;20044;-82
2023/10/30 13:17:07;;;;;;;1.15;0.88;;;;;;;17.96;71.10;153207.81;10573671;28;20115;-82
2023/10/30 13:22:08;;;;;;;0.75;0.70;;;;;;;17.86;70.27;153184.47;10550059;28;20058;-83
2023/10/30 13:27:11;;;;;;;0.88;0.80;;;;;;;17.77;70.87;153159.81;10558845;28;20072;-81
2023/10/30 13:32:13;;;;;;;0.82;0.70;;;;;;;17.80;70.26;153168.91;10549614;28;20048;-80
2023/10/30 13:37:15;;;;;;;1.88;0.70;;;;;;;17.55;73.68;153105.25;10567214;28;20044;-81
2023/10/30 13:42:16;;;;;;;1.30;0.95;;;;;;;17.60;73.46;153116.94;10565704;28;20112;-80
2023/10/30 13:47:20;;;;;;;0.80;0.70;;;;;;;17.62;73.88;153123.44;10571730;28;20049;-82
2023/10/30 13:52:22;;;;;;;1.25;0.90;;;;;;;17.35;75.73;153054.66;10582442;28;20044;-81
2023/10/30 13:57:24;;;;;;;1.23;0.80;;;;;;;17.22;77.52;153019.59;10557964;28;20044;-81
2023/10/30 14:02:25;;;;;;;0.90;0.60;;;;;;;17.36;71.92;153055.97;10558895;28;20043;-82
2023/10/30 14:07:28;;;;;;;1.10;0.65;;;;;;;17.11;73.78;152992.38;10558133;28;20408;-83
2023/10/30 14:12:29;;;;;;;2.17;0.50;;;;;;;17.08;70.12;152985.88;10558024;28;20036;-82
2023/10/30 14:17:31;;;;;;;1.42;0.45;;;;;;;16.82;70.56;152919.75;10541399;28;20043;-82
2023/10/30 14:22:33;;;;;;;2.22;0.68;;;;;;;16.47;70.99;152828.88;10539926;28;20122;-80
2023/10/30 14:27:35;;;;;;;1.35;0.85;;;;;;;16.38;71.88;152806.88;10558108;28;20036;-81
2023/10/30 14:32:36;;;;;;;2.22;1.10;;;;;;;16.24;73.82;152771.81;10560771;28;20099;-81
2023/10/30 14:37:39;;;;;;;2.45;1.48;;;;;;;16.00;75.43;152710.91;10561121;28;20062;-81
2023/10/30 14:42:40;;;;;;;2.80;1.48;;;;;;;15.98;75.18;152705.75;10541234;28;20044;-81
2023/10/30 14:47:42;;;;;;;2.33;1.65;;;;;;;15.78;76.23;152655.19;10558925;28;20044;-80
2023/10/30 14:52:44;;;;;;;2.22;1.95;;;;;;;15.81;75.68;152661.69;10560567;28;20107;-80
2023/10/30 14:57:46;;;;;;;2.83;1.33;;;;;;;15.65;76.17;152621.47;10563140;28;20530;-81
2023/10/30 15:02:47;;;;;;;2.97;1.50;;;;;;;15.60;75.43;152608.47;10567194;28;20059;-80
2023/10/30 15:07:52;;;;;;;2.40;1.52;;;;;;;15.48;77.06;152578.66;10568917;28;20036;-79
2023/10/30 15:12:56;;;;;;;2.25;1.50;;;;;;;15.50;75.30;152583.88;10581649;28;20044;-81
2023/10/30 15:17:58;;;;;;;1.60;1.25;;;;;;;15.45;76.48;152569.56;10581487;28;20094;-80
2023/10/30 15:23:00;;;;;;;1.92;1.20;;;;;;;15.27;78.04;152524.22;10570364;28;20074;-81
2023/10/30 15:28:01;;;;;;;2.63;1.42;;;;;;;15.27;78.34;152524.22;10560515;28;20115;-81
2023/10/30 15:33:03;;;;;;;1.60;1.27;;;;;;;15.04;79.68;152467.22;10558625;28;20048;-81
2023/10/30 15:38:05;;;;;;;1.70;1.35;;;;;;;15.08;78.37;152477.59;10559557;28;20037;-81
2023/10/30 15:43:07;;;;;;;2.15;1.23;;;;;;;15.06;78.98;152472.44;10559598;28;20048;-81
2023/10/30 15:48:09;;;;;;;2.67;1.40;;;;;;;14.94;79.38;152440.03;10557434;28;20132;-80
2023/10/30 15:53:11;;;;;;;1.85;1.60;;;;;;;14.69;81.43;152377.84;10557856;28;20093;-80
2023/10/30 15:58:13;;;;;;;1.60;1.00;;;;;;;14.75;80.77;152393.44;10557147;28;20036;-80
2023/10/30 16:03:35;;;;;;;2.38;0.82;;;;;;;14.77;80.25;152398.59;10555552;28;20116;-82
2023/10/30 16:08:37;;;;;;;1.70;1.10;;;;;;;14.81;80.08;152408.94;10559661;28;20046;-83
2023/10/30 16:13:42;;;;;;;2.92;1.30;;;;;;;14.75;81.01;152392.13;10557718;28;20058;-81
2023/10/30 16:18:45;;;;;;;2.83;1.15;;;;;;;14.77;81.25;152397.28;10557737;28;20040;-82
2023/10/30 16:23:49;;;;;;;2.08;1.40;;;;;;;14.48;83.31;152323.47;10556196;28;20082;-82
2023/10/30 16:28:51;;;;;;;2.65;1.75;;;;;;;14.62;82.35;152359.75;10543205;28;20134;-82
2023/10/30 16:33:53;;;;;;;2.20;1.40;;;;;;;14.58;81.86;152350.69;10563403;28;20070;-81
2023/10/30 16:38:54;;;;;;;1.73;1.10;;;;;;;14.53;82.58;152337.72;10556447;28;20427;-81
2023/10/30 16:43:56;;;;;;;2.05;1.30;;;;;;;14.67;80.75;152371.41;10570676;28;20059;-82
2023/10/30 16:48:58;;;;;;;1.85;1.30;;;;;;;14.48;82.55;152324.78;10566877;28;20059;-81
2023/10/30 16:54:00;;;;;;;1.65;1.15;;;;;;;14.42;83.25;152307.88;10562280;28;20048;-82
2023/10/30 16:59:01;;;;;;;1.88;1.30;;;;;;;14.25;83.94;152265.16;10562285;28;20044;-83
2023/10/30 17:04:03;;;;;;;2.38;1.80;;;;;;;14.57;81.71;152348.09;10565128;28;20061;-80
2023/10/30 17:09:05;;;;;;;2.83;1.73;;;;;;;14.59;81.31;152353.25;10564902;28;20123;-82
2023/10/30 17:14:07;;;;;;;2.80;1.98;;;;;;;14.52;81.96;152333.81;10562778;28;20474;-82
2023/10/30 17:19:09;;;;;;;1.63;1.02;;;;;;;14.53;81.43;152337.72;10545351;28;20108;-83
2023/10/30 17:24:11;;;;;;;1.80;1.10;;;;;;;14.46;82.13;152318.25;10542657;28;20495;-82
2023/10/30 17:29:12;;;;;;;3.22;2.30;;;;;;;14.51;81.93;152331.25;10558865;28;20441;-82
2023/10/30 17:34:14;;;;;;;2.47;1.42;;;;;;;14.60;81.60;152354.53;10561492;28;20044;-82
2023/10/30 17:39:16;;;;;;;2.08;1.27;;;;;;;14.54;82.65;152340.31;10568986;28;20445;-82
2023/10/30 17:44:18;;;;;;;1.20;1.10;;;;;;;14.63;82.38;152362.34;10549922;28;20048;-82
2023/10/30 17:49:20;;;;;;;1.40;1.30;;;;;;;14.53;83.60;152337.72;10564703;28;20115;-85
2023/10/30 17:54:21;;;;;;;3.55;1.60;;;;;;;14.29;85.02;152275.50;10544376;28;20044;-82
2023/10/30 17:59:23;;;;;;;3.63;1.65;;;;;;;14.06;87.59;152218.56;10560224;28;20082;-83
2023/10/30 18:04:27;;;;;;;2.38;1.58;;;;;;;14.18;87.45;152247.06;10540010;28;20050;-84
2023/10/30 18:09:29;;;;;;;2.00;1.70;;;;;;;14.36;86.39;152294.94;10561581;28;20024;-82
2023/10/30 18:14:31;;;;;;;2.05;1.58;;;;;;;14.49;87.00;152327.38;10532259;28;20059;-82
2023/10/30 18:19:36;;;;;;;1.95;1.73;;;;;;;14.35;88.63;152292.38;10541953;28;20442;-83
2023/10/30 18:24:37;;;;;;;2.72;1.60;;;;;;;14.43;87.65;152310.47;10555164;28;20375;-83
2023/10/30 18:29:39;;;;;;;2.70;1.60;;;;;;;14.33;89.60;152285.88;10555452;28;20036;-82
2023/10/30 18:34:41;;;;;;;2.33;1.83;;;;;;;14.21;90.56;152254.78;10557632;28;20099;-83
2023/10/30 18:39:43;;;;;;;2.30;1.77;;;;;;;14.27;90.80;152270.34;10558190;28;20480;-82
2023/10/30 18:44:44;;;;;;;2.13;1.60;;;;;;;14.29;91.03;152276.81;10558001;28;20127;-82
2023/10/30 18:49:46;;;;;;;2.55;2.35;;;;;;;14.23;93.08;152261.28;10557959;28;20051;-82
2023/10/30 18:54:48;;;;;;;3.17;2.50;;;;;;;14.26;93.50;152269.06;10560611;28;20040;-83
2023/10/30 19:00:57;;;;;;;5.63;5.22;;;;;;;14.27;94.00;152271.66;10587709;22;20123;-86
2023/10/30 19:42:12;;;;;;;2.30;1.98;;;;;;;14.39;97.77;152302.72;10390138;28;20054;-88
2023/10/30 21:10:59;;;;;;;2.45;2.25;;;;;;;14.34;94.46;152289.78;10545844;22;20085;-75
2023/10/30 21:16:01;;;;;;;5.68;1.55;;;;;;;14.37;93.57;152296.22;10583928;28;20101;-75
2023/10/30 21:21:03;;;;;;;2.50;1.42;;;;;;;14.42;93.12;152307.88;10584381;28;20104;-75
2023/10/30 21:26:05;;;;;;;1.83;1.50;;;;;;;14.46;93.16;152319.53;10583889;28;20050;-75
2023/10/30 21:31:07;;;;;;;1.70;1.50;;;;;;;14.45;92.92;152316.97;10586959;28;20043;-75
2023/10/30 21:36:09;;;;;;;2.00;1.40;;;;;;;14.34;94.38;152289.78;10592858;28;20118;-74
2023/10/30 21:41:11;;;;;;;2.78;1.50;;;;;;;14.32;95.03;152284.59;10591437;28;20044;-75
2023/10/30 21:46:13;;;;;;;4.82;1.63;;;;;;;14.45;93.43;152315.66;10591634;28;20048;-75
2023/10/30 21:51:14;;;;;;;2.17;1.45;;;;;;;14.40;95.65;152304.03;10571063;28;20110;-75
2023/10/30 21:56:20;;;;;;;1.50;1.40;;;;;;;14.46;94.44;152318.25;10571281;28;20044;-74
2023/10/30 22:01:22;;;;;;;1.70;1.53;;;;;;;14.31;95.89;152280.72;10589910;28;20048;-74
2023/10/30 22:06:27;;;;;;;2.30;1.48;;;;;;;14.23;96.44;152260.00;10556293;28;20047;-74
2023/10/30 22:11:29;;;;;;;2.60;1.67;;;;;;;14.12;97.92;152232.78;10571765;28;20464;-75
2023/10/30 22:16:31;;;;;;;4.18;1.58;;;;;;;14.28;97.01;152272.94;10587316;28;20038;-75
2023/10/30 22:21:34;;;;;;;2.13;1.60;;;;;;;14.09;99.81;152225.03;10587884;28;20506;-75
2023/10/30 22:26:36;;;;;;;2.28;2.00;;;;;;;14.41;98.76;152306.59;10587575;28;20124;-75
2023/10/30 22:31:38;;;;;;;5.03;2.08;;;;;;;14.43;100.00;152311.75;10586602;28;20555;-75
2023/10/30 22:36:45;;;;;;;2.58;1.63;;;;;;;14.21;100.00;152254.78;10569682;28;20514;-74
2023/10/30 22:41:58;;;;;;;2.17;1.80;;;;;;;13.98;100.00;152197.84;10559181;28;20138;-75
2023/10/30 22:47:04;;;;;;;2.20;1.88;;;;;;;13.84;100.00;152162.91;10575675;28;20048;-73
2023/10/30 22:52:06;;;;;;;2.20;1.80;;;;;;;13.86;100.00;152166.81;10569698;28;20050;-73
2023/10/30 22:57:09;;;;;;;2.90;2.13;;;;;;;13.70;100.00;152125.38;10584947;28;20526;-72
2023/10/30 23:02:11;;;;;;;2.13;1.88;;;;;;;13.70;100.00;152126.66;10585656;28;20043;-73
2023/10/30 23:07:13;;;;;;;2.25;2.00;;;;;;;13.79;100.00;152148.66;10588123;28;20035;-73
2023/10/30 23:12:14;;;;;;;3.30;2.22;;;;;;;13.47;100.00;152067.16;10584759;28;20075;-74
2023/10/30 23:17:16;;;;;;;2.85;2.65;;;;;;;13.77;100.00;152144.81;10566666;28;20062;-74
2023/10/30 23:22:18;;;;;;;3.42;2.42;;;;;;;13.80;100.00;152152.53;10584366;28;20043;-74
2023/10/30 23:27:20;;;;;;;4.03;2.72;;;;;;;13.60;100.00;152102.09;10584190;28;20054;-74
2023/10/30 23:32:22;;;;;;;5.30;2.90;;;;;;;13.76;100.00;152140.88;10584846;28;20089;-74
2023/10/30 23:37:24;;;;;;;3.88;2.83;;;;;;;13.54;100.00;152086.53;10584308;28;20040;-74
2023/10/30 23:42:25;;;;;;;3.15;2.85;;;;;;;13.41;100.00;152051.59;10584065;28;20032;-74
2023/10/30 23:47:27;;;;;;;4.43;4.03;;;;;;;13.58;100.00;152096.88;10583751;28;20040;-74
2023/10/30 23:52:29;;;;;;;4.25;3.85;;;;;;;13.51;100.00;152078.78;10565449;28;20048;-73
2023/10/30 23:57:31;;;;;;;3.83;3.40;;;;;;;13.21;100.00;152001.13;10564536;28;20036;-75
